Time;durP1;ratioP1;P1;durP2;ratioP2;P2;SDS_P1;SDS_P2;PMS_P1;PMS_P2;Temp;Humidity;BMP_temperature;BMP_pressure;BME280_temperature;BME280_humidity;BME280_pressure;Samples;Min_cycle;Max_cycle;Signal;HPM_P1;HPM_P2
2024/02/12 00:01:29;;;;;;;6.10;4.20;;;8.10;99.90;;;;;;5054375;28;20194;-63
2024/02/12 00:03:57;;;;;;;4.67;3.73;;;8.10;99.90;;;;;;5056958;28;20705;-63
2024/02/12 00:06:24;;;;;;;7.03;4.97;;;8.10;99.90;;;;;;5073008;28;20229;-64
2024/02/12 00:08:52;;;;;;;6.93;3.70;;;8.10;99.90;;;;;;5057346;28;20195;-64
2024/02/12 00:11:20;;;;;;;7.87;4.37;;;8.10;99.90;;;;;;5054416;28;20553;-64
2024/02/12 00:13:47;;;;;;;5.30;4.00;;;8.10;99.90;;;;;;5056069;28;20208;-64
2024/02/12 00:16:14;;;;;;;7.40;4.90;;;8.10;99.90;;;;;;5054586;28;20209;-62
2024/02/12 00:18:42;;;;;;;5.67;4.00;;;8.10;99.90;;;;;;5049251;28;20218;-62
2024/02/12 00:21:11;;;;;;;6.90;4.30;;;8.10;99.90;;;;;;5047086;28;20613;-65
2024/02/12 00:23:38;;;;;;;5.23;3.80;;;8.10;99.90;;;;;;5061127;28;20197;-65
2024/02/12 00:26:05;;;;;;;4.17;3.57;;;8.10;99.90;;;;;;5045530;28;20227;-63
2024/02/12 00:28:33;;;;;;;5.10;3.47;;;8.10;99.90;;;;;;5045971;28;20736;-63
2024/02/12 00:31:01;;;;;;;6.57;4.20;;;8.20;99.90;;;;;;5047435;28;20256;-63
2024/02/12 00:33:29;;;;;;;7.17;3.60;;;8.10;99.90;;;;;;5060401;28;20193;-63
2024/02/12 00:35:58;;;;;;;3.80;3.17;;;8.10;99.90;;;;;;5059160;28;20201;-64
2024/02/12 00:38:27;;;;;;;5.77;3.60;;;8.20;99.90;;;;;;5059454;28;20624;-64
2024/02/12 00:40:54;;;;;;;6.33;4.23;;;8.10;99.90;;;;;;5058876;28;20598;-65
2024/02/12 00:43:21;;;;;;;7.00;4.50;;;8.10;99.90;;;;;;5057041;28;20196;-64
2024/02/12 00:45:49;;;;;;;6.07;3.83;;;8.20;99.90;;;;;;5057111;28;20325;-64
2024/02/12 00:48:16;;;;;;;5.07;3.87;;;8.20;99.90;;;;;;5065856;28;20186;-66
2024/02/12 00:50:43;;;;;;;8.33;4.80;;;8.20;99.90;;;;;;5065004;28;20207;-65
2024/02/12 00:53:11;;;;;;;7.87;4.10;;;8.20;99.90;;;;;;5058730;28;20201;-65
2024/02/12 00:55:40;;;;;;;11.00;4.30;;;8.20;99.90;;;;;;5054031;28;20204;-64
2024/02/12 00:58:07;;;;;;;6.90;4.60;;;8.20;99.90;;;;;;5055411;28;20688;-66
2024/02/12 01:00:34;;;;;;;6.17;4.80;;;8.20;99.90;;;;;;5053439;28;20193;-64
2024/02/12 01:03:01;;;;;;;9.57;4.87;;;8.20;99.90;;;;;;5066647;28;20201;-65
2024/02/12 01:05:29;;;;;;;4.43;3.90;;;8.20;99.90;;;;;;5071263;28;20672;-64
2024/02/12 01:07:56;;;;;;;7.03;4.00;;;8.20;99.90;;;;;;5069809;28;20680;-66
2024/02/12 01:10:23;;;;;;;5.20;3.70;;;8.20;99.90;;;;;;5063127;28;20190;-65
2024/02/12 01:12:52;;;;;;;4.53;3.70;;;8.20;99.90;;;;;;5058886;28;20215;-65
2024/02/12 01:15:19;;;;;;;6.10;3.53;;;8.20;99.90;;;;;;5049554;28;20209;-65
2024/02/12 01:17:47;;;;;;;9.10;5.10;;;8.20;99.90;;;;;;5056975;28;20718;-64
2024/02/12 01:20:14;;;;;;;6.63;4.30;;;8.20;99.90;;;;;;5055549;28;20218;-65
2024/02/12 01:22:41;;;;;;;8.37;3.83;;;8.20;99.90;;;;;;5058258;28;20210;-65
2024/02/12 01:25:09;;;;;;;7.47;4.20;;;8.20;99.90;;;;;;5055650;28;20205;-64
2024/02/12 01:27:36;;;;;;;7.43;5.03;;;8.20;99.90;;;;;;5057429;28;20735;-66
2024/02/12 01:30:06;;;;;;;7.77;4.50;;;8.30;99.90;;;;;;5056705;28;20201;-65
2024/02/12 01:32:33;;;;;;;7.20;4.80;;;8.20;99.90;;;;;;5056928;28;20740;-64
2024/02/12 01:35:01;;;;;;;11.07;5.13;;;8.20;99.90;;;;;;5056933;28;20260;-65
2024/02/12 01:37:28;;;;;;;5.23;4.00;;;8.20;99.90;;;;;;5051764;28;20202;-65
2024/02/12 01:39:56;;;;;;;8.17;4.67;;;8.20;99.90;;;;;;5053030;28;20213;-65
2024/02/12 01:42:23;;;;;;;8.77;5.23;;;8.20;99.90;;;;;;5051663;28;20671;-64
2024/02/12 01:45:02;;;;;;;7.47;4.47;;;8.20;99.90;;;;;;5053896;28;20199;-65
2024/02/12 01:47:33;;;;;;;7.87;4.60;;;8.20;99.90;;;;;;5054188;28;20203;-65
2024/02/12 01:50:02;;;;;;;6.90;3.60;;;8.20;99.90;;;;;;5048367;28;20189;-64
2024/02/12 01:52:30;;;;;;;4.67;4.10;;;8.20;99.90;;;;;;5056895;28;20211;-66
2024/02/12 01:55:00;;;;;;;4.57;4.07;;;8.20;99.90;;;;;;5053536;28;20252;-64
2024/02/12 01:57:29;;;;;;;8.03;4.33;;;8.30;99.90;;;;;;5055058;28;20226;-65
2024/02/12 01:59:57;;;;;;;9.73;5.50;;;8.30;99.90;;;;;;5055325;28;20326;-65
2024/02/12 02:02:25;;;;;;;10.07;5.17;;;8.30;99.90;;;;;;5565199;22;20242;-67
2024/02/12 02:04:57;;;;;;;11.77;5.30;;;8.30;99.90;;;;;;5028155;28;20672;-67
2024/02/12 02:07:24;;;;;;;8.80;5.00;;;8.30;99.90;;;;;;5036533;28;20201;-68
2024/02/12 02:09:51;;;;;;;8.90;5.10;;;8.30;99.90;;;;;;5036509;28;20189;-67
2024/02/12 02:12:18;;;;;;;15.53;6.20;;;8.30;99.90;;;;;;5035267;28;20200;-67
2024/02/12 02:14:46;;;;;;;10.77;5.60;;;8.30;99.90;;;;;;5036810;28;20203;-67
2024/02/12 02:17:16;;;;;;;10.00;5.90;;;8.30;99.90;;;;;;5035690;28;20221;-67
2024/02/12 02:19:44;;;;;;;12.20;5.43;;;8.30;99.90;;;;;;5035359;28;20215;-67
2024/02/12 02:22:16;;;;;;;8.77;4.77;;;8.30;99.90;;;;;;5051341;28;22283;-68
2024/02/12 02:24:44;;;;;;;6.40;4.10;;;8.30;99.90;;;;;;5036059;28;20631;-67
2024/02/12 02:27:11;;;;;;;7.27;3.97;;;8.30;99.90;;;;;;5034170;28;20197;-67
2024/02/12 02:29:39;;;;;;;7.60;4.47;;;8.30;99.90;;;;;;5037787;28;20281;-68
2024/02/12 02:32:06;;;;;;;13.90;5.13;;;8.20;99.90;;;;;;5036361;28;20305;-67
2024/02/12 02:34:34;;;;;;;11.70;4.93;;;8.20;99.90;;;;;;5036223;28;20202;-69
2024/02/12 02:37:02;;;;;;;11.10;5.27;;;8.30;99.90;;;;;;5036622;28;20203;-68
2024/02/12 02:39:29;;;;;;;12.40;4.93;;;8.30;99.90;;;;;;5036482;28;20227;-69
2024/02/12 02:41:59;;;;;;;8.67;4.20;;;8.30;99.90;;;;;;5035339;28;20226;-68
2024/02/12 02:44:27;;;;;;;12.77;5.97;;;8.30;99.90;;;;;;5036776;28;20194;-68
2024/02/12 02:46:55;;;;;;;10.13;5.53;;;8.30;99.90;;;;;;5036218;28;20200;-66
2024/02/12 02:49:24;;;;;;;6.90;4.93;;;8.30;99.90;;;;;;5037270;28;20274;-67
2024/02/12 02:51:51;;;;;;;6.53;4.30;;;8.30;99.90;;;;;;5036318;28;20202;-67
2024/02/12 02:54:18;;;;;;;6.87;5.00;;;8.30;99.90;;;;;;5035043;28;20214;-67
2024/02/12 02:56:45;;;;;;;7.43;3.97;;;8.30;99.90;;;;;;5032843;28;20849;-67
2024/02/12 02:59:13;;;;;;;6.00;3.80;;;8.30;99.90;;;;;;5036590;28;20212;-67
2024/02/12 03:01:41;;;;;;;5.40;3.83;;;8.30;99.90;;;;;;5034293;28;20208;-67
2024/02/12 03:04:08;;;;;;;4.83;3.33;;;8.30;99.90;;;;;;5051003;28;20225;-68
2024/02/12 03:06:37;;;;;;;4.27;3.00;;;8.30;99.90;;;;;;5055390;28;20239;-68
2024/02/12 03:09:04;;;;;;;3.80;3.10;;;8.30;99.90;;;;;;5055897;28;20209;-67
2024/02/12 03:11:31;;;;;;;4.20;2.73;;;8.20;99.90;;;;;;5054405;28;20250;-67
2024/02/12 03:13:58;;;;;;;3.87;2.97;;;8.20;99.90;;;;;;5054858;28;20203;-68
2024/02/12 03:16:27;;;;;;;4.67;3.20;;;8.30;99.90;;;;;;5055892;28;20223;-67
2024/02/12 03:18:55;;;;;;;3.93;3.10;;;8.30;99.90;;;;;;5053904;28;20213;-68
2024/02/12 03:21:23;;;;;;;2.63;2.43;;;8.30;99.90;;;;;;5055893;28;20696;-67
2024/02/12 03:23:52;;;;;;;2.80;2.60;;;8.30;99.90;;;;;;5055347;28;20861;-67
2024/02/12 03:26:20;;;;;;;3.33;2.47;;;8.30;99.90;;;;;;5054465;28;20288;-68
2024/02/12 03:28:49;;;;;;;3.27;2.83;;;8.30;99.90;;;;;;5054420;28;20306;-67
2024/02/12 03:31:16;;;;;;;2.63;2.37;;;8.30;99.90;;;;;;5037786;28;20735;-66
2024/02/12 03:33:49;;;;;;;2.57;2.33;;;8.40;99.90;;;;;;5055049;28;20200;-67
2024/02/12 03:36:16;;;;;;;2.20;2.00;;;8.30;99.90;;;;;;5055301;28;20220;-66
2024/02/12 03:38:44;;;;;;;2.60;2.40;;;8.30;99.90;;;;;;5055974;28;20206;-67
2024/02/12 03:41:18;;;;;;;2.40;2.20;;;8.30;99.90;;;;;;5054275;28;20928;-66
2024/02/12 03:43:46;;;;;;;2.13;1.93;;;8.30;99.90;;;;;;5053759;28;20210;-67
2024/02/12 03:46:19;;;;;;;1.80;1.70;;;8.40;99.90;;;;;;5055585;28;20655;-67
2024/02/12 03:59:53;;;;;;;1.80;1.70;;;8.30;99.90;;;;;;5036502;28;20553;-68
2024/02/12 04:02:20;;;;;;;2.13;2.00;;;8.30;99.90;;;;;;5051291;28;20319;-68
2024/02/12 04:04:49;;;;;;;2.10;1.87;;;8.30;99.90;;;;;;5054524;28;20651;-68
2024/02/12 04:07:16;;;;;;;1.80;1.70;;;8.30;99.90;;;;;;5054572;28;20197;-68
2024/02/12 04:09:43;;;;;;;2.67;2.47;;;8.20;99.90;;;;;;5054610;28;20191;-68
2024/02/12 04:12:12;;;;;;;2.30;2.10;;;8.20;99.90;;;;;;5054261;28;20197;-67
2024/02/12 04:14:42;;;;;;;2.67;2.20;;;8.30;99.90;;;;;;5055651;28;20197;-67
2024/02/12 04:17:10;;;;;;;2.30;2.10;;;8.30;99.90;;;;;;5054141;28;20203;-67
2024/02/12 04:19:38;;;;;;;1.90;1.80;;;8.30;99.90;;;;;;5054095;28;20304;-68
2024/02/12 04:22:09;;;;;;;2.63;1.87;;;8.30;99.90;;;;;;5055168;28;20200;-68
2024/02/12 04:24:39;;;;;;;2.13;1.93;;;8.30;99.90;;;;;;5055755;28;20586;-68
2024/02/12 04:27:07;;;;;;;2.13;2.03;;;8.30;99.90;;;;;;5036726;28;20205;-67
2024/02/12 04:29:37;;;;;;;2.00;1.90;;;8.30;99.90;;;;;;5055899;28;20201;-68
2024/02/12 04:32:05;;;;;;;2.00;1.90;;;8.30;99.90;;;;;;5056978;28;20280;-68
2024/02/12 04:34:34;;;;;;;1.87;1.77;;;8.30;99.90;;;;;;5057537;28;20197;-67
2024/02/12 04:37:02;;;;;;;1.80;1.70;;;8.30;99.90;;;;;;5058811;28;20288;-68
2024/02/12 04:39:30;;;;;;;1.97;1.87;;;8.30;99.90;;;;;;5057957;28;20217;-68
2024/02/12 04:41:59;;;;;;;2.00;1.90;;;8.30;99.90;;;;;;5058266;28;20212;-68
2024/02/12 04:44:26;;;;;;;2.40;2.20;;;8.30;99.90;;;;;;5058078;28;20201;-68
2024/02/12 04:46:53;;;;;;;1.80;1.70;;;8.40;99.90;;;;;;5057241;28;20857;-66
2024/02/12 04:49:21;;;;;;;2.10;2.00;;;8.40;99.90;;;;;;5058095;28;20245;-68
2024/02/12 04:51:48;;;;;;;2.17;2.00;;;8.40;99.90;;;;;;5058121;28;20570;-68
2024/02/12 04:54:16;;;;;;;2.20;2.00;;;8.30;99.90;;;;;;5040345;28;20242;-67
2024/02/12 04:56:44;;;;;;;2.23;2.10;;;8.30;99.90;;;;;;5057279;28;20267;-66
2024/02/12 04:59:12;;;;;;;2.30;2.20;;;8.30;99.90;;;;;;5056959;28;20207;-67
2024/02/12 05:01:40;;;;;;;2.40;2.20;;;8.30;99.90;;;;;;5056166;28;20654;-67
2024/02/12 05:04:07;;;;;;;2.07;1.97;;;8.40;99.90;;;;;;5057328;28;20241;-67
2024/02/12 05:06:36;;;;;;;3.63;2.80;;;8.40;99.90;;;;;;5057827;28;20208;-67
2024/02/12 05:09:04;;;;;;;3.53;2.50;;;8.40;99.90;;;;;;5056556;28;20697;-68
2024/02/12 05:11:32;;;;;;;2.50;2.30;;;8.40;99.90;;;;;;5056912;28;20198;-68
2024/02/12 05:14:00;;;;;;;2.57;2.10;;;8.40;99.90;;;;;;5057392;28;20189;-67
2024/02/12 05:16:30;;;;;;;2.57;2.37;;;8.30;99.90;;;;;;5058628;28;20238;-67
2024/02/12 05:24:28;;;;;;;2.40;2.20;;;8.30;99.90;;;;;;5039755;28;20250;-68
2024/02/12 05:26:56;;;;;;;2.50;2.03;;;8.30;99.90;;;;;;5055885;28;20207;-67
2024/02/12 05:29:25;;;;;;;3.17;2.87;;;8.30;99.90;;;;;;5057203;28;20238;-67
2024/02/12 05:31:52;;;;;;;3.03;2.73;;;8.30;99.90;;;;;;5057326;28;20206;-67
2024/02/12 05:34:20;;;;;;;3.00;2.70;;;8.30;99.90;;;;;;5056922;28;20198;-67
2024/02/12 05:36:48;;;;;;;2.53;2.33;;;8.30;99.90;;;;;;5056658;28;20220;-68
2024/02/12 05:39:16;;;;;;;3.13;2.70;;;8.30;99.90;;;;;;5057853;28;20203;-68
2024/02/12 05:41:43;;;;;;;2.10;2.00;;;8.30;99.90;;;;;;5056588;28;20202;-69
2024/02/12 05:44:10;;;;;;;2.10;2.00;;;8.30;99.90;;;;;;5056447;28;20726;-67
2024/02/12 05:46:39;;;;;;;3.17;2.70;;;8.30;99.90;;;;;;5056814;28;20663;-68
2024/02/12 05:49:07;;;;;;;2.90;2.50;;;8.40;99.90;;;;;;5056919;28;20202;-67
2024/02/12 05:51:34;;;;;;;4.63;2.90;;;8.30;99.90;;;;;;5057547;28;20214;-67
2024/02/12 05:54:02;;;;;;;2.73;2.30;;;8.40;99.90;;;;;;5057318;28;20200;-67
2024/02/12 05:56:30;;;;;;;2.57;2.10;;;8.40;99.90;;;;;;5037157;28;20548;-68
2024/02/12 05:58:58;;;;;;;2.20;2.00;;;8.30;99.90;;;;;;5056673;28;20194;-67
2024/02/12 06:01:25;;;;;;;2.83;2.23;;;8.30;99.90;;;;;;5038616;28;20478;-68
2024/02/12 06:03:54;;;;;;;2.00;1.90;;;8.30;99.90;;;;;;5056699;28;20256;-68
2024/02/12 06:06:21;;;;;;;2.30;2.20;;;8.30;99.90;;;;;;5056418;28;20274;-68
2024/02/12 06:08:48;;;;;;;4.43;3.27;;;8.30;99.90;;;;;;5056464;28;20260;-67
2024/02/12 06:11:15;;;;;;;2.70;2.50;;;8.40;99.90;;;;;;5056258;28;20601;-67
2024/02/12 06:13:42;;;;;;;2.67;2.47;;;8.40;99.90;;;;;;5056384;28;20205;-68
2024/02/12 06:16:10;;;;;;;2.40;2.20;;;8.40;99.90;;;;;;5056424;28;20198;-67
2024/02/12 06:18:37;;;;;;;2.83;2.47;;;8.40;99.90;;;;;;5039046;28;20367;-68
2024/02/12 06:21:06;;;;;;;2.00;1.90;;;8.30;99.90;;;;;;5056574;28;20213;-68
2024/02/12 06:23:33;;;;;;;2.13;2.03;;;8.30;99.90;;;;;;5056533;28;20347;-67
2024/02/12 06:26:01;;;;;;;3.77;2.83;;;8.40;99.90;;;;;;5056215;28;20288;-68
2024/02/12 06:28:28;;;;;;;5.10;2.43;;;8.40;99.90;;;;;;5055234;28;20192;-68
2024/02/12 06:30:56;;;;;;;2.60;2.40;;;8.40;99.90;;;;;;5056550;28;20190;-68
2024/02/12 06:33:23;;;;;;;2.60;2.40;;;8.40;99.90;;;;;;5053544;28;20686;-68
2024/02/12 06:35:50;;;;;;;2.57;2.37;;;8.40;99.90;;;;;;5054384;28;20682;-68
2024/02/12 06:38:19;;;;;;;3.17;2.70;;;8.30;99.90;;;;;;5056621;28;20205;-68
2024/02/12 06:40:46;;;;;;;2.67;2.47;;;8.30;99.90;;;;;;5056632;28;20592;-68
2024/02/12 06:43:13;;;;;;;2.70;2.50;;;8.30;99.90;;;;;;5038393;28;20308;-67
2024/02/12 06:45:40;;;;;;;3.30;3.00;;;8.40;99.90;;;;;;5056488;28;21295;-67
2024/02/12 06:48:08;;;;;;;2.50;2.30;;;8.40;99.90;;;;;;5055136;28;20199;-67
2024/02/12 06:50:35;;;;;;;3.10;2.80;;;8.40;99.90;;;;;;5037777;28;20234;-68
2024/02/12 06:53:03;;;;;;;2.73;2.53;;;8.40;99.90;;;;;;5056299;28;20307;-68
2024/02/12 06:55:33;;;;;;;2.37;2.17;;;8.40;99.90;;;;;;5056179;28;20316;-68
2024/02/12 06:58:00;;;;;;;2.53;2.33;;;8.30;99.90;;;;;;5052898;28;20192;-67
2024/02/12 07:00:27;;;;;;;2.67;2.37;;;8.30;99.90;;;;;;5054552;28;20327;-67
2024/02/12 07:02:55;;;;;;;2.97;2.20;;;8.40;99.90;;;;;;5054565;28;20264;-67
2024/02/12 07:05:23;;;;;;;3.87;1.90;;;8.40;99.90;;;;;;5038870;28;20446;-67
2024/02/12 07:07:50;;;;;;;2.47;2.27;;;8.50;99.90;;;;;;5049548;28;20245;-67
2024/02/12 07:10:20;;;;;;;2.90;2.30;;;8.40;99.90;;;;;;5051396;28;20195;-67
2024/02/12 07:12:48;;;;;;;2.80;2.60;;;8.40;99.90;;;;;;5045890;28;20281;-67
2024/02/12 07:15:16;;;;;;;2.57;2.37;;;8.40;99.90;;;;;;5048507;28;20208;-68
2024/02/12 07:17:43;;;;;;;3.40;3.10;;;8.40;99.90;;;;;;5051174;28;20546;-68
2024/02/12 07:20:12;;;;;;;2.93;2.67;;;8.40;99.90;;;;;;5052489;28;20566;-68
2024/02/12 07:22:39;;;;;;;7.57;5.10;;;8.40;99.90;;;;;;5051762;28;20606;-68
2024/02/12 07:25:08;;;;;;;4.73;3.97;;;8.40;99.90;;;;;;5051661;28;20245;-69
2024/02/12 07:27:36;;;;;;;5.63;4.23;;;8.40;99.90;;;;;;5052032;28;20285;-67
2024/02/12 07:30:07;;;;;;;4.83;3.53;;;8.40;99.90;;;;;;5052679;28;20497;-67
2024/02/12 07:32:37;;;;;;;3.93;3.53;;;8.40;99.90;;;;;;5054053;28;20198;-67
2024/02/12 07:35:06;;;;;;;4.13;3.30;;;8.40;99.90;;;;;;5052284;28;20759;-67
2024/02/12 07:37:34;;;;;;;3.20;2.90;;;8.40;99.90;;;;;;5052908;28;20222;-68
2024/02/12 07:40:03;;;;;;;3.63;3.10;;;8.40;99.90;;;;;;5053088;28;20693;-68
2024/02/12 07:42:30;;;;;;;4.23;3.03;;;8.40;99.90;;;;;;5054713;28;20197;-68
2024/02/12 07:44:58;;;;;;;3.60;3.30;;;8.40;99.90;;;;;;5054520;28;20197;-67
2024/02/12 07:47:28;;;;;;;2.53;2.33;;;8.40;99.90;;;;;;5054437;28;20235;-67
2024/02/12 07:49:55;;;;;;;3.67;2.93;;;8.40;99.90;;;;;;5051753;28;20197;-68
2024/02/12 07:52:23;;;;;;;3.00;2.80;;;8.40;99.90;;;;;;5053447;28;20205;-69
2024/02/12 07:54:50;;;;;;;2.50;2.27;;;8.40;99.90;;;;;;5047288;28;20200;-69
2024/02/12 07:57:17;;;;;;;3.03;2.73;;;8.40;99.90;;;;;;5052142;28;20239;-69
2024/02/12 07:59:44;;;;;;;3.50;2.40;;;8.40;99.90;;;;;;5051278;28;20542;-68
2024/02/12 08:02:12;;;;;;;3.00;2.67;;;8.40;99.90;;;;;;5049467;28;20225;-68
2024/02/12 08:04:41;;;;;;;3.33;2.90;;;8.40;99.90;;;;;;5060299;28;20202;-69
2024/02/12 08:07:08;;;;;;;3.67;2.73;;;8.50;99.90;;;;;;5053103;28;20203;-69
2024/02/12 08:09:35;;;;;;;2.67;2.47;;;8.40;99.90;;;;;;5038436;28;20196;-69
2024/02/12 08:12:05;;;;;;;4.93;3.07;;;8.50;99.90;;;;;;5066853;28;20189;-68
2024/02/12 08:14:33;;;;;;;6.43;3.53;;;8.50;99.90;;;;;;5060372;28;20191;-69
2024/02/12 08:17:00;;;;;;;3.83;2.80;;;8.50;99.90;;;;;;5037068;28;20199;-69
2024/02/12 08:19:28;;;;;;;7.73;3.17;;;8.60;99.90;;;;;;5065030;28;20578;-69
2024/02/12 08:21:56;;;;;;;7.57;3.87;;;8.60;99.90;;;;;;5065167;28;20675;-70
2024/02/12 08:24:24;;;;;;;9.10;4.30;;;8.70;99.90;;;;;;5066720;28;20199;-69
2024/02/12 08:26:53;;;;;;;5.83;4.13;;;8.70;99.90;;;;;;5055304;28;20293;-69
2024/02/12 08:29:20;;;;;;;9.27;3.87;;;8.70;99.90;;;;;;5055487;28;20535;-69
2024/02/12 08:31:47;;;;;;;7.20;3.80;;;8.60;99.90;;;;;;5056243;28;20670;-69
2024/02/12 08:34:15;;;;;;;7.43;3.77;;;8.60;99.90;;;;;;5055481;28;20336;-68
2024/02/12 08:36:43;;;;;;;5.03;4.00;;;8.70;99.90;;;;;;5063253;28;20231;-68
2024/02/12 08:39:13;;;;;;;5.33;3.60;;;8.70;99.90;;;;;;5051033;28;20555;-67
2024/02/12 08:41:41;;;;;;;6.30;4.03;;;8.70;99.90;;;;;;5066537;28;20205;-67
2024/02/12 08:44:09;;;;;;;9.73;4.63;;;8.70;99.90;;;;;;5053945;28;20257;-69
2024/02/12 08:46:36;;;;;;;7.93;4.73;;;8.80;99.90;;;;;;5052503;28;20266;-69
2024/02/12 08:49:04;;;;;;;7.40;5.00;;;8.80;99.90;;;;;;5054549;28;20198;-68
2024/02/12 08:51:32;;;;;;;9.17;4.97;;;8.80;99.90;;;;;;5050797;28;20206;-67
2024/02/12 08:54:00;;;;;;;8.10;5.23;;;8.80;99.90;;;;;;5037017;28;20209;-68
2024/02/12 08:56:29;;;;;;;7.30;4.60;;;8.80;99.90;;;;;;5052919;28;20741;-68
2024/02/12 08:58:57;;;;;;;10.63;5.73;;;8.80;99.90;;;;;;5054310;28;20194;-68
2024/02/12 09:01:24;;;;;;;7.20;5.10;;;8.90;99.90;;;;;;5054102;28;20218;-67
2024/02/12 09:03:51;;;;;;;10.13;5.70;;;8.80;99.90;;;;;;5052286;28;20234;-67
2024/02/12 09:06:18;;;;;;;8.93;5.93;;;8.80;99.90;;;;;;5062417;28;20210;-68
2024/02/12 09:08:46;;;;;;;8.53;5.50;;;8.80;99.90;;;;;;5069141;28;20279;-68
2024/02/12 09:11:14;;;;;;;9.90;5.50;;;8.80;99.90;;;;;;5066292;28;20204;-68
2024/02/12 09:13:43;;;;;;;7.67;5.20;;;8.80;99.90;;;;;;5057576;28;20195;-68
2024/02/12 09:16:10;;;;;;;7.90;4.80;;;8.90;99.90;;;;;;5066551;28;20199;-68
2024/02/12 09:18:38;;;;;;;9.30;5.17;;;8.90;99.90;;;;;;5066763;28;20671;-68
2024/02/12 09:21:07;;;;;;;9.63;5.87;;;8.90;99.90;;;;;;5059801;28;20275;-67
2024/02/12 09:23:34;;;;;;;9.37;5.63;;;8.90;99.90;;;;;;5070428;28;20270;-69
2024/02/12 09:26:05;;;;;;;9.97;5.67;;;8.90;99.90;;;;;;5068357;28;20251;-68
2024/02/12 09:28:33;;;;;;;7.87;5.07;;;8.90;99.90;;;;;;5062611;28;20201;-69
2024/02/12 09:31:01;;;;;;;9.33;4.90;;;8.90;99.90;;;;;;5063426;28;20190;-68
2024/02/12 09:33:30;;;;;;;7.20;4.90;;;8.80;99.90;;;;;;5069246;28;20203;-68
2024/02/12 09:35:58;;;;;;;7.50;4.80;;;8.80;99.90;;;;;;5061372;28;20197;-68
2024/02/12 09:38:26;;;;;;;8.43;5.13;;;8.80;99.90;;;;;;5055282;28;20197;-68
2024/02/12 09:40:54;;;;;;;8.30;4.97;;;8.80;99.90;;;;;;5069950;28;20302;-69
2024/02/12 09:43:22;;;;;;;8.33;5.00;;;8.90;99.90;;;;;;5068002;28;20285;-68
2024/02/12 09:45:51;;;;;;;7.40;4.67;;;8.90;99.90;;;;;;5064191;28;20197;-68
2024/02/12 09:48:21;;;;;;;8.23;5.03;;;8.90;99.90;;;;;;5067541;28;20544;-69
2024/02/12 09:50:51;;;;;;;5.17;4.20;;;8.90;99.90;;;;;;5073968;28;20672;-68
2024/02/12 09:53:19;;;;;;;5.13;3.70;;;8.90;99.90;;;;;;5064298;28;20279;-69
2024/02/12 09:55:47;;;;;;;6.97;4.90;;;8.90;99.90;;;;;;5066625;28;20601;-70
2024/02/12 09:58:16;;;;;;;7.63;5.07;;;8.90;99.90;;;;;;5068962;28;20526;-68
2024/02/12 10:00:44;;;;;;;5.70;3.73;;;8.90;99.90;;;;;;5046883;28;20284;-69
2024/02/12 10:03:12;;;;;;;4.97;4.07;;;8.90;99.90;;;;;;5062432;28;20227;-68
2024/02/12 10:05:42;;;;;;;9.27;5.17;;;8.90;99.90;;;;;;5070103;28;20466;-68
2024/02/12 10:08:19;;;;;;;6.70;4.50;;;8.90;99.90;;;;;;5070189;28;20189;-69
2024/02/12 10:10:47;;;;;;;6.33;4.47;;;8.80;99.90;;;;;;5053913;28;20276;-68
2024/02/12 10:13:15;;;;;;;8.37;5.40;;;8.80;99.90;;;;;;5064553;28;20429;-69
2024/02/12 10:15:43;;;;;;;8.23;4.90;;;8.80;99.90;;;;;;5068124;28;20561;-68
2024/02/12 10:18:12;;;;;;;6.17;4.63;;;8.80;99.90;;;;;;5056683;28;20199;-70
2024/02/12 10:20:40;;;;;;;6.90;5.13;;;8.80;99.90;;;;;;5066711;28;20647;-69
2024/02/12 10:23:09;;;;;;;11.90;6.10;;;8.80;99.90;;;;;;5067000;28;20206;-68
2024/02/12 10:25:40;;;;;;;7.10;4.87;;;8.80;99.90;;;;;;5063281;28;20739;-67
2024/02/12 10:28:08;;;;;;;8.07;5.03;;;8.80;99.90;;;;;;5051484;28;20241;-68
2024/02/12 10:30:35;;;;;;;5.97;4.50;;;8.80;99.90;;;;;;5042403;28;20600;-68
2024/02/12 10:33:05;;;;;;;6.57;4.37;;;8.80;99.90;;;;;;5037263;28;20626;-68
2024/02/12 10:35:37;;;;;;;6.07;4.53;;;8.80;99.90;;;;;;5077977;28;20302;-67
2024/02/12 10:38:07;;;;;;;8.30;5.77;;;8.80;99.90;;;;;;5028825;28;20532;-68
2024/02/12 10:40:44;;;;;;;6.90;4.37;;;8.80;99.90;;;;;;5067730;28;20200;-68
2024/02/12 10:43:17;;;;;;;7.73;5.23;;;8.80;99.90;;;;;;5065560;28;20218;-68
2024/02/12 10:45:47;;;;;;;9.37;5.17;;;8.80;99.90;;;;;;5040203;28;20203;-67
2024/02/12 10:48:16;;;;;;;8.00;5.10;;;8.90;99.90;;;;;;5041686;28;20362;-67
2024/02/12 10:50:45;;;;;;;7.40;4.97;;;8.90;99.90;;;;;;5068339;28;20688;-67
2024/02/12 10:53:16;;;;;;;7.60;4.87;;;8.90;99.90;;;;;;5071170;28;20200;-67
2024/02/12 10:55:45;;;;;;;6.10;4.87;;;8.90;99.90;;;;;;5055814;28;20207;-68
2024/02/12 10:58:12;;;;;;;7.57;5.10;;;8.90;99.90;;;;;;5049617;28;20252;-68
2024/02/12 11:00:40;;;;;;;6.23;4.17;;;8.90;99.90;;;;;;5052452;28;20197;-68
2024/02/12 11:03:08;;;;;;;9.87;5.80;;;8.90;99.90;;;;;;5051616;28;21046;-68
2024/02/12 11:05:42;;;;;;;10.00;6.00;;;8.90;99.90;;;;;;5033888;28;20211;-68
2024/02/12 11:08:18;;;;;;;8.57;5.63;;;8.90;99.90;;;;;;5028333;28;20198;-68
2024/02/12 11:10:49;;;;;;;10.97;5.73;;;8.90;99.90;;;;;;5052620;28;20181;-68
2024/02/12 11:13:19;;;;;;;11.10;5.70;;;8.90;99.90;;;;;;5050484;28;20272;-68
2024/02/12 11:15:50;;;;;;;8.10;5.33;;;8.90;99.90;;;;;;5050222;28;20735;-68
2024/02/12 11:18:17;;;;;;;10.77;6.70;;;8.90;99.90;;;;;;5051842;28;20226;-69
2024/02/12 11:20:49;;;;;;;9.57;5.90;;;8.90;99.90;;;;;;5051984;28;20204;-68
2024/02/12 11:23:25;;;;;;;9.17;5.63;;;8.80;99.90;;;;;;5052805;28;20215;-67
2024/02/12 11:25:56;;;;;;;11.53;6.13;;;8.80;99.90;;;;;;5052268;28;20206;-68
2024/02/12 11:28:29;;;;;;;8.40;5.97;;;8.80;99.90;;;;;;5049652;28;20206;-69
2024/02/12 11:30:56;;;;;;;13.10;5.13;;;8.80;99.90;;;;;;5052199;28;20513;-68
2024/02/12 11:33:25;;;;;;;8.50;5.67;;;8.80;99.90;;;;;;5052511;28;22319;-67
2024/02/12 11:36:02;;;;;;;9.87;5.67;;;8.80;99.90;;;;;;5050950;28;20205;-68
2024/02/12 11:38:31;;;;;;;10.57;6.13;;;8.80;99.90;;;;;;5052561;28;20674;-67
2024/02/12 11:40:59;;;;;;;9.70;6.03;;;8.80;99.90;;;;;;5051369;28;20213;-69
2024/02/12 11:43:27;;;;;;;8.97;6.03;;;8.80;99.90;;;;;;5051093;28;20575;-67
2024/02/12 11:46:00;;;;;;;8.40;5.37;;;8.80;99.90;;;;;;5052264;28;20198;-68
2024/02/12 11:48:28;;;;;;;11.13;6.03;;;8.80;99.90;;;;;;5048271;28;20246;-68
2024/02/12 11:50:55;;;;;;;10.67;6.07;;;8.80;99.90;;;;;;5074003;28;20200;-68
2024/02/12 11:53:23;;;;;;;8.07;5.73;;;8.80;99.90;;;;;;5057972;28;20270;-68
2024/02/12 11:55:52;;;;;;;11.37;6.30;;;8.80;99.90;;;;;;5053465;28;20199;-68
2024/02/12 11:58:19;;;;;;;9.10;5.87;;;8.80;99.90;;;;;;5062759;28;20284;-68
2024/02/12 12:00:46;;;;;;;7.90;5.07;;;8.80;99.90;;;;;;5055443;28;20296;-68
2024/02/12 12:03:13;;;;;;;6.77;4.87;;;8.80;99.90;;;;;;5052059;28;20233;-67
2024/02/12 12:05:43;;;;;;;15.60;5.87;;;8.80;99.90;;;;;;5050306;28;20823;-67
2024/02/12 12:08:11;;;;;;;12.10;5.80;;;8.90;99.90;;;;;;5026331;28;20213;-68
2024/02/12 12:10:38;;;;;;;8.40;5.50;;;8.80;99.90;;;;;;5025240;28;20210;-67
2024/02/12 12:13:07;;;;;;;11.57;5.80;;;8.80;99.90;;;;;;5050010;28;20188;-67
2024/02/12 12:15:34;;;;;;;9.20;5.90;;;8.90;99.90;;;;;;5049808;28;20214;-68
2024/02/12 12:18:03;;;;;;;10.30;6.47;;;8.90;99.90;;;;;;5053072;28;20226;-68
2024/02/12 12:20:34;;;;;;;9.27;6.23;;;8.90;99.90;;;;;;5048919;28;20197;-68
2024/02/12 12:23:03;;;;;;;13.47;6.30;;;8.90;99.90;;;;;;5049450;28;20213;-67
2024/02/12 12:25:31;;;;;;;8.17;5.60;;;8.80;99.90;;;;;;5049781;28;20203;-68
2024/02/12 12:27:58;;;;;;;10.63;5.50;;;8.90;99.90;;;;;;5033112;28;20214;-68
2024/02/12 12:30:26;;;;;;;7.23;4.87;;;8.90;99.90;;;;;;5050347;28;20216;-68
2024/02/12 12:32:53;;;;;;;7.83;5.00;;;9.00;99.90;;;;;;5054962;28;20226;-68
2024/02/12 12:35:21;;;;;;;7.60;5.10;;;8.90;99.90;;;;;;5046942;28;20250;-69
2024/02/12 12:37:49;;;;;;;7.57;4.70;;;9.00;99.90;;;;;;5050547;28;20531;-69
2024/02/12 12:40:19;;;;;;;8.33;4.93;;;9.00;99.90;;;;;;5048937;28;20218;-69
2024/02/12 12:42:48;;;;;;;6.13;4.53;;;9.00;99.90;;;;;;5049045;28;20275;-68
2024/02/12 12:45:16;;;;;;;5.33;4.23;;;9.00;99.90;;;;;;5042424;28;20196;-68
2024/02/12 12:47:45;;;;;;;5.00;4.33;;;9.00;99.90;;;;;;5049568;28;20304;-68
2024/02/12 12:50:13;;;;;;;5.70;4.00;;;9.00;99.90;;;;;;5049079;28;20199;-68
2024/02/12 12:52:42;;;;;;;5.83;4.57;;;9.00;99.90;;;;;;5051945;28;20192;-68
2024/02/12 12:55:13;;;;;;;4.03;3.63;;;9.00;99.90;;;;;;5035605;28;20201;-68
2024/02/12 12:57:41;;;;;;;4.63;3.60;;;9.10;99.90;;;;;;5062567;28;20196;-67
2024/02/12 13:00:18;;;;;;;5.43;3.90;;;9.10;99.90;;;;;;5034969;28;20572;-68
2024/02/12 13:02:47;;;;;;;6.43;4.23;;;9.10;99.90;;;;;;5054980;28;20575;-69
2024/02/12 13:05:15;;;;;;;7.13;4.60;;;9.20;99.90;;;;;;5055042;28;20301;-69
2024/02/12 13:07:44;;;;;;;7.37;4.33;;;9.10;99.90;;;;;;5051678;28;20339;-67
2024/02/12 13:10:11;;;;;;;5.07;3.77;;;9.20;99.90;;;;;;5051830;28;20531;-70
2024/02/12 13:12:38;;;;;;;4.60;3.90;;;9.20;99.90;;;;;;5054111;28;20190;-68
2024/02/12 13:15:09;;;;;;;3.70;3.40;;;9.20;99.90;;;;;;5051272;28;20204;-68
2024/02/12 13:17:36;;;;;;;4.30;3.47;;;9.10;99.90;;;;;;5048189;28;20486;-68